createdAt,value
2018-06-25T00:01:04.801Z,95014.33
2018-06-25T00:03:33.615Z,95012.00
2018-06-25T00:06:02.760Z,95017.84
2018-06-25T00:08:31.795Z,95019.83
2018-06-25T00:11:00.534Z,95021.55
2018-06-25T00:13:29.252Z,95020.70
2018-06-25T00:15:58.029Z,95016.45
2018-06-25T00:18:26.787Z,95015.80
2018-06-25T00:20:55.606Z,95023.39
2018-06-25T00:23:24.399Z,95021.78
2018-06-25T00:25:53.390Z,95021.26
2018-06-25T00:28:22.117Z,95018.39
2018-06-25T00:30:50.874Z,95017.73
2018-06-25T00:33:19.614Z,95021.70
2018-06-25T00:35:48.356Z,95020.16
2018-06-25T00:38:18.003Z,95026.63
2018-06-25T00:40:47.358Z,95022.84
2018-06-25T00:43:16.073Z,95029.16
2018-06-25T00:45:44.823Z,95025.08
2018-06-25T00:48:13.625Z,95027.42
2018-06-25T00:50:42.344Z,95025.63
2018-06-25T00:53:11.110Z,95028.38
2018-06-25T00:55:39.841Z,95024.93
2018-06-25T00:58:08.685Z,95021.88
2018-06-25T01:00:37.789Z,95019.38
2018-06-25T01:03:06.611Z,95011.63
2018-06-25T01:05:35.463Z,95013.75
2018-06-25T01:08:04.198Z,95005.31
2018-06-25T01:10:32.910Z,95006.09
2018-06-25T01:13:01.599Z,94998.96
2018-06-25T01:15:30.305Z,94995.00
2018-06-25T01:17:59.093Z,94991.22
2018-06-25T01:20:27.847Z,94995.30
2018-06-25T01:22:56.622Z,94988.39
2018-06-25T01:25:25.334Z,94988.69
2018-06-25T01:27:54.157Z,94990.78
2018-06-25T01:30:22.929Z,95007.70
2018-06-25T01:32:51.645Z,95000.36
2018-06-25T01:35:20.365Z,94999.11
2018-06-25T01:37:49.117Z,95004.22
2018-06-25T01:40:17.844Z,95004.72
2018-06-25T01:42:46.534Z,95010.86
2018-06-25T01:45:15.328Z,95008.17
2018-06-25T01:47:44.046Z,95004.72
2018-06-25T01:50:12.759Z,95007.26
2018-06-25T01:52:41.578Z,95007.58
2018-06-25T01:55:10.276Z,95003.83
2018-06-25T01:57:38.991Z,95001.34
2018-06-25T02:00:07.818Z,94995.17
2018-06-25T02:02:36.550Z,94992.67
2018-06-25T02:05:06.183Z,94993.58
2018-06-25T02:07:35.243Z,94998.86
2018-06-25T02:10:04.100Z,95000.20
2018-06-25T02:12:32.967Z,94998.47
2018-06-25T02:15:01.696Z,95001.37
2018-06-25T02:17:30.414Z,94999.53
2018-06-25T02:19:59.117Z,95000.81
2018-06-25T02:22:27.871Z,95005.42
2018-06-25T02:24:56.574Z,95008.58
2018-06-25T02:27:25.291Z,95004.11
2018-06-25T02:29:54.007Z,95003.47
2018-06-25T02:32:23.165Z,95007.27
2018-06-25T02:34:52.508Z,95004.50
2018-06-25T02:37:21.267Z,95009.61
2018-06-25T02:39:50.489Z,95005.22
2018-06-25T02:42:19.279Z,95006.11
2018-06-25T02:44:47.964Z,95006.54
2018-06-25T02:47:16.834Z,95013.36
2018-06-25T02:49:45.666Z,95014.33
2018-06-25T02:52:14.451Z,95014.25
2018-06-25T02:54:43.171Z,95026.05
2018-06-25T02:57:11.896Z,95025.11
2018-06-25T02:59:40.634Z,95028.56
2018-06-25T03:02:11.509Z,95029.13
2018-06-25T03:04:40.251Z,95027.66
2018-06-25T03:07:09.391Z,95025.63
2018-06-25T03:09:38.107Z,95027.38
2018-06-25T03:12:06.897Z,95028.56
2018-06-25T03:14:35.621Z,95022.61
2018-06-25T03:17:04.357Z,95024.30
2018-06-25T03:19:33.107Z,95029.72
2018-06-25T03:22:02.053Z,95024.30
2018-06-25T03:24:30.841Z,95029.28
2018-06-25T03:26:59.582Z,95023.70
2018-06-25T03:29:35.526Z,95027.73
2018-06-25T03:32:04.714Z,95031.61
2018-06-25T03:34:33.399Z,95033.66
2018-06-25T03:37:02.215Z,95031.98
2018-06-25T03:39:30.967Z,95032.18
2018-06-25T03:41:59.773Z,95029.25
2018-06-25T03:44:28.513Z,95037.17
2018-06-25T03:46:57.238Z,95037.39
2018-06-25T03:49:25.995Z,95035.18
2018-06-25T03:51:54.910Z,95038.20
2018-06-25T03:54:23.630Z,95030.70
2018-06-25T03:56:52.385Z,95036.80
2018-06-25T03:59:21.135Z,95034.53
2018-06-25T04:01:50.053Z,95032.48
2018-06-25T04:04:19.028Z,95030.28
2018-06-25T04:06:47.792Z,95034.67
2018-06-25T04:09:16.516Z,95039.52
2018-06-25T04:11:45.264Z,95042.02
2018-06-25T04:14:14.003Z,95039.94
2018-06-25T04:16:42.726Z,95042.86
2018-06-25T04:19:11.511Z,95040.22
2018-06-25T04:21:40.273Z,95044.67
2018-06-25T04:24:09.087Z,95034.03
2018-06-25T04:26:37.852Z,95049.09
2018-06-25T04:29:06.962Z,95040.51
2018-06-25T04:31:35.671Z,95052.84
2018-06-25T04:34:04.840Z,95047.25
2018-06-25T04:36:33.679Z,95041.27
2018-06-25T04:39:02.426Z,95040.68
2018-06-25T04:41:31.274Z,95034.42
2018-06-25T04:44:00.031Z,95037.80
2018-06-25T04:46:28.813Z,95033.22
2018-06-25T04:48:57.556Z,95035.07
2018-06-25T04:51:26.299Z,95031.37
2018-06-25T04:53:55.053Z,95036.88
2018-06-25T04:56:23.829Z,95038.06
2018-06-25T04:58:52.647Z,95035.53
2018-06-25T05:01:21.725Z,95041.60
2018-06-25T05:03:50.591Z,95042.99
2018-06-25T05:06:19.365Z,95042.68
2018-06-25T05:08:48.265Z,95047.09
2018-06-25T05:11:17.078Z,95048.66
2018-06-25T05:13:45.931Z,95046.84
2018-06-25T05:16:14.775Z,95046.43
2018-06-25T05:18:43.638Z,95045.72
2018-06-25T05:21:12.435Z,95048.43
2018-06-25T05:23:41.258Z,95051.30
2018-06-25T05:26:10.158Z,95053.45
2018-06-25T05:28:38.992Z,95048.48
2018-06-25T05:31:07.894Z,95046.67
2018-06-25T05:33:36.659Z,95049.81
2018-06-25T05:36:05.907Z,95051.75
2018-06-25T05:38:34.807Z,95047.39
2018-06-25T05:41:03.720Z,95048.71
2018-06-25T05:43:32.528Z,95045.45
2018-06-25T05:46:01.350Z,95052.36
2018-06-25T05:48:30.096Z,95042.23
2018-06-25T05:50:58.867Z,95053.44
2018-06-25T05:53:27.576Z,95058.28
2018-06-25T05:55:56.336Z,95060.61
2018-06-25T05:58:25.711Z,95062.52
2018-06-25T06:00:54.617Z,95063.29
2018-06-25T06:03:23.351Z,95063.13
2018-06-25T06:05:52.174Z,95053.05
2018-06-25T06:08:20.981Z,95058.88
2018-06-25T06:10:49.809Z,95053.64
2018-06-25T06:13:18.591Z,95050.47
2018-06-25T06:15:47.477Z,95053.34
2018-06-25T06:18:16.229Z,95059.80
2018-06-25T06:20:44.968Z,95059.99
2018-06-25T06:23:13.823Z,95058.91
2018-06-25T06:25:42.954Z,95061.80
2018-06-25T06:28:11.734Z,95063.88
2018-06-25T06:30:40.594Z,95060.26
2018-06-25T06:33:09.409Z,95056.94
2018-06-25T06:35:38.224Z,95051.20
2018-06-25T06:38:07.019Z,95057.91
2018-06-25T06:40:35.748Z,95057.67
2018-06-25T06:43:04.627Z,95065.05
2018-06-25T06:45:33.845Z,95056.70
2018-06-25T06:48:02.790Z,95056.63
2018-06-25T06:50:31.605Z,95053.02
2018-06-25T06:53:00.325Z,95050.13
2018-06-25T06:55:29.063Z,95056.13
2018-06-25T06:57:57.847Z,95053.05
2018-06-25T07:00:26.727Z,95045.51
2018-06-25T07:02:55.462Z,95047.75
2018-06-25T07:05:24.215Z,95045.45
2018-06-25T07:07:53.066Z,95046.61
2018-06-25T07:10:21.855Z,95037.56
2018-06-25T07:12:50.734Z,95035.61
2018-06-25T07:15:19.494Z,95033.81
2018-06-25T07:17:48.386Z,95031.87
2018-06-25T07:20:17.143Z,95035.05
2018-06-25T07:22:45.855Z,95028.39
2018-06-25T07:25:14.670Z,95029.02
2018-06-25T07:27:43.646Z,95015.31
2018-06-25T07:30:12.542Z,95027.87
2018-06-25T07:32:41.409Z,95031.96
2018-06-25T07:35:10.187Z,95025.52
2018-06-25T07:37:39.062Z,95035.41
2018-06-25T07:40:07.854Z,95039.73
2018-06-25T07:42:36.992Z,95032.16
2018-06-25T07:45:05.777Z,95037.66
2018-06-25T07:47:34.546Z,95032.16
2018-06-25T07:50:03.493Z,95035.06
2018-06-25T07:52:32.231Z,95035.80
2018-06-25T07:55:00.966Z,95042.89
2018-06-25T07:57:29.796Z,95032.73
2018-06-25T07:59:58.545Z,95034.09
2018-06-25T08:02:27.337Z,95034.00
2018-06-25T08:04:56.132Z,95039.49
2018-06-25T08:07:25.043Z,95040.75
2018-06-25T08:09:53.869Z,95043.81
2018-06-25T08:12:22.807Z,95045.86
2018-06-25T08:14:51.656Z,95033.67
2018-06-25T08:17:20.519Z,95040.69
2018-06-25T08:19:49.468Z,95040.97
2018-06-25T08:22:18.230Z,95052.26
2018-06-25T08:24:47.133Z,95040.26
2018-06-25T08:27:15.903Z,95040.39
2018-06-25T08:29:45.248Z,95037.77
2018-06-25T08:32:14.590Z,95034.06
2018-06-25T08:34:43.460Z,95022.73
2018-06-25T08:37:12.887Z,95022.63
2018-06-25T08:39:41.785Z,95029.53
2018-06-25T08:42:10.622Z,95030.87
2018-06-25T08:44:39.510Z,95020.70
2018-06-25T08:47:08.361Z,95019.19
2018-06-25T08:49:37.228Z,95020.73
2018-06-25T08:52:06.794Z,95022.27
2018-06-25T08:54:35.615Z,95019.53
2018-06-25T08:57:04.484Z,95021.48
2018-06-25T08:59:33.397Z,95011.16
2018-06-25T09:02:02.358Z,95015.20
2018-06-25T09:04:31.121Z,95019.17
2018-06-25T09:06:59.957Z,95019.68
2018-06-25T09:09:33.922Z,95011.08
2018-06-25T09:12:02.901Z,95008.21
2018-06-25T09:14:31.716Z,95007.80
2018-06-25T09:17:00.538Z,95011.48
2018-06-25T09:19:29.376Z,95002.38
2018-06-25T09:21:58.358Z,94999.89
2018-06-25T09:24:27.327Z,95001.20
2018-06-25T09:26:56.217Z,95007.77
2018-06-25T09:29:25.257Z,95005.18
2018-06-25T09:31:54.063Z,95004.58
2018-06-25T09:34:57.431Z,95003.88
2018-06-25T09:37:26.563Z,95004.19
2018-06-25T09:39:55.348Z,95008.44
2018-06-25T09:42:24.159Z,95004.27
2018-06-25T09:44:53.024Z,94999.70
2018-06-25T09:47:21.868Z,94999.00
2018-06-25T09:49:50.920Z,94996.92
2018-06-25T09:52:19.794Z,95000.41
2018-06-25T09:54:49.083Z,95002.28
2018-06-25T09:57:18.011Z,95002.80
2018-06-25T09:59:46.733Z,94995.70
2018-06-25T10:02:15.524Z,94990.46
2018-06-25T10:04:44.310Z,94994.69
2018-06-25T10:07:13.100Z,94989.17
2018-06-25T10:09:41.939Z,94988.11
2018-06-25T10:12:10.667Z,94981.37
2018-06-25T10:14:39.494Z,94979.42
2018-06-25T10:17:08.447Z,94977.73
2018-06-25T10:19:37.197Z,94974.55
2018-06-25T10:22:06.186Z,94972.95
2018-06-25T10:24:34.963Z,94969.82
2018-06-25T10:27:10.276Z,94974.02
2018-06-25T10:29:39.100Z,94971.86
2018-06-25T10:32:07.923Z,94974.19
2018-06-25T10:34:37.152Z,94965.69
2018-06-25T10:37:06.059Z,94971.58
2018-06-25T10:39:34.802Z,94970.52
2018-06-25T10:42:03.998Z,94969.21
2018-06-25T10:44:33.086Z,94961.55
2018-06-25T10:47:01.922Z,94968.30
2018-06-25T10:49:30.754Z,94955.52
2018-06-25T10:51:59.555Z,94946.75
2018-06-25T10:54:28.379Z,94945.35
2018-06-25T10:56:57.130Z,94954.64
2018-06-25T10:59:25.991Z,94950.98
2018-06-25T11:01:54.872Z,94952.05
2018-06-25T11:04:23.718Z,94954.73
2018-06-25T11:06:52.528Z,94952.33
2018-06-25T11:09:21.376Z,94949.13
2018-06-25T11:11:50.282Z,94946.47
2018-06-25T11:14:19.157Z,94941.94
2018-06-25T11:16:47.919Z,94935.02
2018-06-25T11:19:16.722Z,94938.52
2018-06-25T11:21:45.478Z,94936.09
2018-06-25T11:24:14.240Z,94936.91
2018-06-25T11:26:43.099Z,94932.91
2018-06-25T11:29:12.855Z,94928.88
2018-06-25T11:31:41.631Z,94930.77
2018-06-25T11:34:10.397Z,94929.16
2018-06-25T11:36:39.201Z,94927.84
2018-06-25T11:39:09.854Z,94931.05
2018-06-25T11:41:38.700Z,94929.98
2018-06-25T11:44:07.627Z,94921.41
2018-06-25T11:46:36.491Z,94922.45
2018-06-25T11:49:05.714Z,94922.45
2018-06-25T11:51:34.476Z,94917.08
2018-06-25T11:54:03.302Z,94921.38
2018-06-25T11:56:32.120Z,94912.75
2018-06-25T11:59:00.883Z,94905.85
2018-06-25T12:01:29.652Z,94900.23
2018-06-25T12:03:58.983Z,94900.10
2018-06-25T12:06:27.815Z,94894.20
2018-06-25T12:08:56.613Z,94898.38
2018-06-25T12:11:25.459Z,94898.36
2018-06-25T12:13:54.218Z,94897.67
2018-06-25T12:16:23.859Z,94902.05
2018-06-25T12:18:53.083Z,94893.82
2018-06-25T12:21:21.789Z,94894.87
2018-06-25T12:23:50.594Z,94890.75
2018-06-25T12:26:20.335Z,94896.00
2018-06-25T12:28:49.669Z,94897.44
2018-06-25T12:31:18.477Z,94894.30
2018-06-25T12:33:47.275Z,94898.61
2018-06-25T12:36:17.290Z,94897.55
2018-06-25T12:38:50.945Z,94910.64
2018-06-25T12:41:21.204Z,94905.40
2018-06-25T12:43:50.423Z,94897.11
2018-06-25T12:46:19.252Z,94898.97
2018-06-25T12:48:48.486Z,94900.83
2018-06-25T12:51:17.269Z,94895.94
2018-06-25T12:53:46.106Z,94891.52
2018-06-25T12:56:15.103Z,94895.75
2018-06-25T12:58:43.840Z,94903.55
2018-06-25T13:01:12.696Z,94904.55
2018-06-25T13:03:41.496Z,94900.30
2018-06-25T13:06:10.319Z,94897.36
2018-06-25T13:08:39.073Z,94892.83
2018-06-25T13:11:07.890Z,94890.45
2018-06-25T13:13:36.731Z,94892.59
2018-06-25T13:16:05.526Z,94891.78
2018-06-25T13:18:35.022Z,94882.16
2018-06-25T13:21:03.943Z,94881.63
2018-06-25T13:23:32.850Z,94886.14
2018-06-25T13:26:01.747Z,94885.87
2018-06-25T13:28:30.555Z,94882.58
2018-06-25T13:30:59.489Z,94881.21
2018-06-25T13:33:28.493Z,94868.98
2018-06-25T13:35:57.297Z,94858.55
2018-06-25T13:38:26.096Z,94867.98
2018-06-25T13:40:55.036Z,94862.08
2018-06-25T13:43:24.325Z,94867.14
2018-06-25T13:45:53.196Z,94867.61
2018-06-25T13:48:22.023Z,94856.64
2018-06-25T13:50:51.017Z,94859.28
2018-06-25T13:53:19.803Z,94854.33
2018-06-25T13:55:48.498Z,94857.80
2018-06-25T13:58:17.320Z,94859.55
2018-06-25T14:00:46.063Z,94849.66
2018-06-25T14:03:14.862Z,94852.73
2018-06-25T14:05:44.655Z,94838.86
2018-06-25T14:08:13.553Z,94845.33
2018-06-25T14:10:42.457Z,94837.40
2018-06-25T14:13:11.285Z,94838.73
2018-06-25T14:15:40.079Z,94833.13
2018-06-25T14:18:08.966Z,94841.94
2018-06-25T14:20:37.764Z,94840.34
2018-06-25T14:23:06.997Z,94836.86
2018-06-25T14:25:41.005Z,94840.34
2018-06-25T14:28:15.136Z,94842.78
2018-06-25T14:30:49.368Z,94835.06
2018-06-25T14:33:22.288Z,94840.41
2018-06-25T14:35:51.433Z,94847.89
2018-06-25T14:38:20.312Z,94847.68
2018-06-25T14:40:49.112Z,94848.72
2018-06-25T14:43:17.993Z,94839.84
2018-06-25T14:45:46.815Z,94844.09
2018-06-25T14:48:15.602Z,94851.53
2018-06-25T14:50:46.434Z,94845.95
2018-06-25T14:53:15.181Z,94843.50
2018-06-25T14:55:43.981Z,94840.02
2018-06-25T14:58:13.776Z,94835.93
2018-06-25T15:00:42.602Z,94827.30
2018-06-25T15:03:11.359Z,94819.83
2018-06-25T15:05:40.108Z,94813.78
2018-06-25T15:08:08.898Z,94820.47
2018-06-25T15:10:37.649Z,94818.86
2018-06-25T15:13:06.964Z,94815.39
2018-06-25T15:15:35.864Z,94816.98
2018-06-25T15:18:05.087Z,94817.78
2018-06-25T15:20:34.093Z,94813.03
2018-06-25T15:23:02.955Z,94819.94
2018-06-25T15:25:31.791Z,94820.19
2018-06-25T15:28:00.670Z,94828.42
2018-06-25T15:30:29.417Z,94826.61
2018-06-25T15:32:58.435Z,94821.91
2018-06-25T15:35:27.256Z,94825.18
2018-06-25T15:37:56.158Z,94819.23
2018-06-25T15:40:25.038Z,94827.82
2018-06-25T15:42:54.867Z,94821.14
2018-06-25T15:45:23.588Z,94830.19
2018-06-25T15:47:52.365Z,94833.92
2018-06-25T15:50:21.114Z,94834.00
2018-06-25T15:52:49.874Z,94840.73
2018-06-25T15:55:18.635Z,94846.61
2018-06-25T15:57:47.481Z,94846.30
2018-06-25T16:00:17.530Z,94842.79
2018-06-25T16:02:46.266Z,94848.70
2018-06-25T16:05:15.032Z,94852.17
2018-06-25T16:07:43.878Z,94854.04
2018-06-25T16:10:12.651Z,94850.23
2018-06-25T16:12:41.505Z,94860.19
2018-06-25T16:15:10.317Z,94862.00
2018-06-25T16:17:39.227Z,94862.80
2018-06-25T16:20:07.962Z,94863.28
2018-06-25T16:22:36.893Z,94862.94
2018-06-25T16:25:06.330Z,94859.73
2018-06-25T16:27:35.162Z,94867.88
2018-06-25T16:30:05.800Z,94869.24
2018-06-25T16:32:34.549Z,94870.13
2018-06-25T16:35:03.427Z,94869.07
2018-06-25T16:37:32.191Z,94869.08
2018-06-25T16:40:00.976Z,94860.28
2018-06-25T16:42:30.954Z,94858.95
2018-06-25T16:44:59.735Z,94861.84
2018-06-25T16:49:56.515Z,94852.52
2018-06-25T16:52:25.370Z,94858.67
2018-06-25T16:54:54.224Z,94857.89
2018-06-25T16:57:22.975Z,94857.06
2018-06-25T16:59:51.750Z,94858.40
2018-06-25T17:02:20.554Z,94854.37
2018-06-25T17:04:49.482Z,94854.39
2018-06-25T17:07:18.338Z,94857.86
2018-06-25T17:09:47.156Z,94849.86
2018-06-25T17:12:16.309Z,94852.80
2018-06-25T17:14:45.552Z,94854.65
2018-06-25T17:17:14.312Z,94856.27
2018-06-25T17:19:43.087Z,94857.34
2018-06-25T17:22:11.836Z,94864.53
2018-06-25T17:24:40.597Z,94879.47
2018-06-25T17:27:09.307Z,94873.06
2018-06-25T17:29:38.024Z,94875.97
2018-06-25T17:32:06.781Z,94878.09
2018-06-25T17:34:35.534Z,94882.03
2018-06-25T17:37:04.886Z,94882.58
2018-06-25T17:39:35.642Z,94883.88
2018-06-25T17:42:06.254Z,94873.73
2018-06-25T17:44:34.954Z,94880.91
2018-06-25T17:47:04.293Z,94878.22
2018-06-25T17:49:34.924Z,94875.56
2018-06-25T17:52:03.690Z,94881.13
2018-06-25T17:54:32.485Z,94879.81
2018-06-25T17:57:01.579Z,94889.42
2018-06-25T17:59:30.391Z,94883.96
2018-06-25T18:02:02.269Z,94887.06
2018-06-25T18:04:33.124Z,94893.91
2018-06-25T18:07:03.939Z,94897.61
2018-06-25T18:09:33.546Z,94890.08
2018-06-25T18:12:02.929Z,94896.73
2018-06-25T18:14:32.153Z,94898.05
2018-06-25T18:17:00.935Z,94904.65
2018-06-25T18:19:29.782Z,94905.65
2018-06-25T18:21:58.611Z,94906.68
2018-06-25T18:24:27.440Z,94906.12
2018-06-25T18:26:56.436Z,94910.34
2018-06-25T18:29:25.208Z,94908.14
2018-06-25T18:31:54.018Z,94909.08
2018-06-25T18:34:22.735Z,94907.97
2018-06-25T18:36:51.522Z,94919.90
2018-06-25T18:39:20.284Z,94927.25
2018-06-25T18:41:49.108Z,94935.96
2018-06-25T18:44:17.906Z,94933.83
2018-06-25T18:46:46.629Z,94936.66
2018-06-25T18:49:15.412Z,94932.04
2018-06-25T18:51:44.335Z,94936.02
2018-06-25T18:54:13.183Z,94942.88
2018-06-25T18:56:41.956Z,94949.27
2018-06-25T18:59:10.688Z,94952.94
2018-06-25T19:01:39.399Z,94956.56
2018-06-25T19:04:08.580Z,94953.09
2018-06-25T19:06:37.635Z,94952.81
2018-06-25T19:09:09.588Z,94955.47
2018-06-25T19:11:38.747Z,94957.00
2018-06-25T19:14:07.962Z,94955.43
2018-06-25T19:16:36.764Z,94952.73
2018-06-25T19:19:05.693Z,94954.58
2018-06-25T19:21:34.399Z,94961.99
2018-06-25T19:24:03.179Z,94957.72
2018-06-25T19:26:31.921Z,94951.55
2018-06-25T19:29:00.639Z,94956.30
2018-06-25T19:31:29.402Z,94951.70
2018-06-25T19:33:58.158Z,94958.30
2018-06-25T19:36:27.290Z,94959.92
2018-06-25T19:38:56.054Z,94957.02
2018-06-25T19:41:24.878Z,94961.05
2018-06-25T19:43:54.654Z,94958.16
2018-06-25T19:46:23.407Z,94953.17
2018-06-25T19:48:52.453Z,94953.40
2018-06-25T19:51:21.228Z,94950.45
2018-06-25T19:53:50.374Z,94938.22
2018-06-25T19:56:19.556Z,94950.45
2018-06-25T19:58:48.340Z,94952.59
2018-06-25T20:01:17.145Z,94955.41
2018-06-25T20:03:45.921Z,94951.86
2018-06-25T20:06:15.025Z,94948.91
2018-06-25T20:08:44.068Z,94948.58
2018-06-25T20:11:12.895Z,94945.12
2018-06-25T20:13:42.092Z,94948.58
2018-06-25T20:16:10.934Z,94947.41
2018-06-25T20:18:39.751Z,94939.68
2018-06-25T20:21:08.457Z,94946.61
2018-06-25T20:23:37.531Z,94942.63
2018-06-25T20:26:06.628Z,94939.73
2018-06-25T20:28:37.179Z,94947.53
2018-06-25T20:31:06.006Z,94943.04
2018-06-25T20:33:34.722Z,94947.06
2018-06-25T20:36:03.911Z,94946.87
2018-06-25T20:38:32.636Z,94944.45
2018-06-25T20:41:01.427Z,94943.70
2018-06-25T20:43:30.171Z,94946.06
2018-06-25T20:45:59.126Z,94944.92
2018-06-25T20:48:27.982Z,94945.16
2018-06-25T20:50:56.751Z,94949.83
2018-06-25T20:53:25.558Z,94943.15
2018-06-25T20:55:55.051Z,94944.08
2018-06-25T20:58:23.806Z,94944.59
2018-06-25T21:00:52.594Z,94941.70
2018-06-25T21:03:21.429Z,94945.44
2018-06-25T21:05:50.412Z,94938.33
2018-06-25T21:08:19.106Z,94936.00
2018-06-25T21:10:47.827Z,94934.92
2018-06-25T21:13:16.590Z,94937.09
2018-06-25T21:15:45.755Z,94931.27
2018-06-25T21:18:14.512Z,94934.16
2018-06-25T21:20:43.255Z,94930.45
2018-06-25T21:23:12.387Z,94927.23
2018-06-25T21:25:41.093Z,94931.78
2018-06-25T21:28:10.106Z,94932.83
2018-06-25T21:30:40.233Z,94932.02
2018-06-25T21:33:10.125Z,94922.36
2018-06-25T21:35:39.364Z,94925.25
2018-06-25T21:38:08.536Z,94918.08
2018-06-25T21:40:37.753Z,94922.71
2018-06-25T21:43:06.546Z,94918.73
2018-06-25T21:45:35.304Z,94920.85
2018-06-25T21:48:04.023Z,94929.58
2018-06-25T21:50:32.750Z,94926.30
2018-06-25T21:53:01.509Z,94931.86
2018-06-25T21:55:30.269Z,94931.57
2018-06-25T21:57:59.023Z,94922.47
2018-06-25T22:00:37.583Z,94928.11
2018-06-25T22:03:06.280Z,94930.42
2018-06-25T22:05:35.011Z,94927.77
2018-06-25T22:08:03.783Z,94922.98
2018-06-25T22:10:32.561Z,94930.95
2018-06-25T22:13:01.260Z,94926.40
2018-06-25T22:15:30.088Z,94921.66
2018-06-25T22:17:59.168Z,94926.27
2018-06-25T22:20:28.149Z,94922.56
2018-06-25T22:22:56.951Z,94926.31
2018-06-25T22:25:26.156Z,94922.38
2018-06-25T22:27:55.011Z,94922.90
2018-06-25T22:30:23.994Z,94923.91
2018-06-25T22:32:52.787Z,94921.47
2018-06-25T22:35:21.507Z,94926.73
2018-06-25T22:37:51.111Z,94930.44
2018-06-25T22:40:19.854Z,94929.96
2018-06-25T22:42:49.582Z,94931.77
2018-06-25T22:45:18.354Z,94926.73
2018-06-25T22:47:47.151Z,94924.84
2018-06-25T22:50:15.950Z,94926.59
2018-06-25T22:52:44.631Z,94932.93
2018-06-25T22:55:13.362Z,94933.93
2018-06-25T22:57:42.188Z,94926.53
2018-06-25T23:00:10.958Z,94927.86
2018-06-25T23:02:39.706Z,94930.69
2018-06-25T23:05:08.842Z,94918.70
2018-06-25T23:07:37.591Z,94925.81
2018-06-25T23:10:06.332Z,94926.57
2018-06-25T23:12:35.023Z,94914.05
2018-06-25T23:15:03.821Z,94914.28
2018-06-25T23:17:32.522Z,94914.80
2018-06-25T23:20:01.294Z,94905.34
2018-06-25T23:22:30.006Z,94906.27
2018-06-25T23:24:58.762Z,94899.30
2018-06-25T23:27:27.481Z,94904.55
2018-06-25T23:29:56.168Z,94903.17
2018-06-25T23:32:24.950Z,94904.73
2018-06-25T23:34:53.676Z,94909.30
2018-06-25T23:37:22.414Z,94906.73
2018-06-25T23:39:57.480Z,94913.21
2018-06-25T23:42:26.187Z,94908.95
2018-06-25T23:44:55.189Z,94918.23
2018-06-25T23:47:23.939Z,94919.79
2018-06-25T23:49:52.659Z,94916.31
2018-06-25T23:52:21.408Z,94911.81
2018-06-25T23:54:50.122Z,94909.82
2018-06-25T23:57:18.986Z,94909.80
2018-06-25T23:59:47.711Z,94915.91
